Abbeville, Alabama
Current Conditions -  °F | °C
As of 11:53 AM on Saturday 20 Dec 2014 (Local Time) from KDHN Reporting Station
Overcast Overcast  
Wind Chill: 12°   Ceiling: 10000
Heat Index: 12°   Visibility: 10mi
Dew Point: 10°   Wind: 5mph
Humidity: 86%   Direction: 50°NE
Pressure: 30.16"   Gusts: NA
Location:  31.57°N, 85.25°W
Report Text: KDHN 201753Z 05004KT 10SM OVC100 12/10 A3016 RMK AO2 SLP213 60002 T01220100 10122 20083 58015
Loading
Personal Weather Stations






























Interactive Weather Map New forecast layout! Learn more

10-Day Weather Forecast

Advertisements
Track Severe Weather on mobile